KSGF/SGF METAR and TAF weather

Enter ICAO airport designator
Station Type Date Time Source
KSGF METAR 2019/04/19 10:52 UTC NOAA

KSGF 191052Z 35013G22KT 10SM CLR 07/02 A2986 RMK AO2 SLP111 T00670022


Station Type Date Time Source
KSGF Decoded METAR 2019/04/19 10:52 UTC NOAA

SPRINGFIELD-BRANSON NATIONAL, MO, United States (KSGF) 37-14N 93-23W 389M
Apr 19, 2019 - 06:52 AM EDT / 2019.04.19 1052 UTC
Wind: from the N (350 degrees) at 15 MPH (13 KT) gusting to 25 MPH (22 KT):0
Visibility: 10 mile(s):0
Sky conditions: clear
Temperature: 44.1 F (6.7 C)
Dew Point: 36.0 F (2.2 C)
Relative Humidity: 72%
Pressure (altimeter): 29.86 in. Hg (1011 hPa)
ob: KSGF 191052Z 35013G22KT 10SM CLR 07/02 A2986 RMK AO2 SLP111 T00670022
cycle: 11

Station Type Date Time Source
KSGF TAF 2019/04/19 06:22 UTC NOAA

TAF KSGF 190520Z 1906/2006 34007KT P6SM SCT040
FM191400 35018G30KT P6SM SCT035
FM200100 34013G21KT P6SM SKC
FM200300 33006KT P6SM SKC

Example: see airport list